Terminal Aerodrome Forecast
Issued by NWS Upton, NY

Home | Current Version | Previous Version | Text Only | Print | Product List | Glossary On
Versions: 1 2 3 4 5 6 7 8 9 10 11 12 13 14 15 16 17 18 19 20 21 22 23 24 25 26 27 28 29 30 31 32 33
000
FTUS41 KOKX 281132
TAFBDR
TAF
KBDR 281132Z 2812/0112 08003KT P6SM OVC100
     FM281700 12007KT P6SM OVC035
     FM282100 13007KT P6SM BKN020 OVC040
     FM010000 13006KT 4SM BR OVC010
     FM010200 13007KT 2SM -RA BR BKN007 OVC010
     FM010400 14007KT 1SM RA BR OVC004
     FM010700 17008KT 1SM -RA BR OVC004
     FM010900 19008KT 3SM BR OVC004 WS020/24040KT=

USA.gov is the U.S. government's official web portal to all federal, state and local government web resources and services.